Time;durP1;ratioP1;P1;durP2;ratioP2;P2;SDS_P1;SDS_P2;PMS_P1;PMS_P2;Temp;Humidity;BMP_temperature;BMP_pressure;BME280_temperature;BME280_humidity;BME280_pressure;Samples;Min_cycle;Max_cycle;Signal;HPM_P1;HPM_P2
2022/06/08 00:02:26;;;;;;;4.37;2.10;;;18.20;52.10;;;;;;5057252;28;20181;-93
2022/06/08 00:04:52;;;;;;;3.10;2.00;;;18.30;50.60;;;;;;5059171;28;20249;-85
2022/06/08 00:07:17;;;;;;;3.33;2.50;;;18.30;50.30;;;;;;5080520;28;20179;-84
2022/06/08 00:09:43;;;;;;;4.10;2.43;;;18.30;48.00;;;;;;5075621;28;20725;-93
2022/06/08 00:12:09;;;;;;;5.07;2.33;;;18.40;45.60;;;;;;5073735;28;20180;-92
2022/06/08 00:14:36;;;;;;;5.60;2.53;;;18.40;46.10;;;;;;5057498;28;20276;-91
2022/06/08 00:17:03;;;;;;;3.87;2.40;;;18.30;47.40;;;;;;5060516;28;20169;-91
2022/06/08 00:19:29;;;;;;;5.30;2.43;;;18.30;48.20;;;;;;5064521;28;20260;-90
2022/06/08 00:21:54;;;;;;;3.80;2.30;;;18.20;49.70;;;;;;5084328;28;20246;-85
2022/06/08 00:24:20;;;;;;;5.17;2.30;;;18.20;51.70;;;;;;5095582;28;20183;-83
2022/06/08 00:26:47;;;;;;;3.87;2.50;;;18.10;53.60;;;;;;5095082;28;20180;-85
2022/06/08 00:29:13;;;;;;;5.57;2.37;;;18.20;51.80;;;;;;5095021;28;20198;-84
2022/06/08 00:31:40;;;;;;;3.40;2.57;;;18.40;49.50;;;;;;5094849;28;20181;-84
2022/06/08 00:34:07;;;;;;;4.40;2.40;;;18.40;46.60;;;;;;5092151;28;20160;-83
2022/06/08 00:36:33;;;;;;;4.17;2.13;;;18.40;45.70;;;;;;5094691;28;20214;-84
2022/06/08 00:38:59;;;;;;;4.70;2.80;;;18.40;45.50;;;;;;5093687;28;20180;-84
2022/06/08 00:41:27;;;;;;;4.27;2.43;;;18.40;45.50;;;;;;5094397;28;20250;-83
2022/06/08 00:43:54;;;;;;;5.93;2.63;;;18.30;47.10;;;;;;5094109;28;20688;-84
2022/06/08 00:46:20;;;;;;;6.00;2.60;;;18.30;47.00;;;;;;5089051;28;20180;-86
2022/06/08 00:48:54;;;;;;;3.20;2.10;;;18.20;50.00;;;;;;5085018;28;20210;-84
2022/06/08 00:51:21;;;;;;;4.60;2.30;;;18.10;52.60;;;;;;5083727;28;20167;-84
2022/06/08 00:54:02;;;;;;;4.43;2.43;;;18.20;52.20;;;;;;5086088;28;20163;-85
2022/06/08 00:56:35;;;;;;;4.90;2.40;;;18.20;52.40;;;;;;5092059;28;20184;-92
2022/06/08 00:59:04;;;;;;;4.13;2.67;;;18.00;54.30;;;;;;5089533;28;20569;-88
2022/06/08 01:01:30;;;;;;;5.37;2.60;;;18.10;52.70;;;;;;5081543;28;20569;-93
2022/06/08 01:04:12;;;;;;;3.70;2.43;;;18.10;50.30;;;;;;5075034;28;20516;-86
2022/06/08 01:06:43;;;;;;;5.20;2.60;;;18.30;49.80;;;;;;5074143;28;20164;-93
2022/06/08 01:09:32;;;;;;;6.30;2.83;;;18.20;47.00;;;;;;5057503;28;20207;-90
2022/06/08 01:12:03;;;;;;;4.10;2.47;;;18.20;46.50;;;;;;5079939;28;20156;-88
2022/06/08 01:14:29;;;;;;;3.53;2.60;;;18.10;48.00;;;;;;5096847;28;20179;-84
2022/06/08 01:17:03;;;;;;;3.80;2.77;;;18.00;52.80;;;;;;5085950;28;20224;-84
2022/06/08 01:19:39;;;;;;;4.93;2.70;;;17.90;55.50;;;;;;5091921;28;20168;-89
2022/06/08 01:22:17;;;;;;;5.83;2.60;;;18.00;56.60;;;;;;5079056;28;20249;-94
2022/06/08 01:24:46;;;;;;;4.10;2.53;;;18.00;57.70;;;;;;5074790;28;20206;-94
2022/06/08 01:27:26;;;;;;;4.13;2.57;;;18.00;59.20;;;;;;5074394;28;20168;-89
2022/06/08 01:30:18;;;;;;;4.13;2.67;;;18.00;60.20;;;;;;5075050;28;20219;-87
2022/06/08 01:32:56;;;;;;;5.73;2.90;;;18.00;60.20;;;;;;5084750;28;20305;-83
2022/06/08 01:35:42;;;;;;;4.20;2.70;;;18.10;61.50;;;;;;5095350;28;20165;-84
2022/06/08 01:38:33;;;;;;;4.23;2.43;;;18.00;62.10;;;;;;5084374;28;20183;-87
2022/06/08 01:41:24;;;;;;;3.60;2.60;;;17.90;65.20;;;;;;5080410;28;20244;-93
2022/06/08 01:44:03;;;;;;;3.90;2.80;;;18.00;64.60;;;;;;5077146;28;20247;-84
2022/06/08 01:46:33;;;;;;;4.37;2.80;;;18.00;64.30;;;;;;5077232;28;20636;-85
2022/06/08 01:49:36;;;;;;;4.03;2.60;;;18.10;63.80;;;;;;5078154;28;20205;-87
2022/06/08 01:52:40;;;;;;;4.07;2.73;;;18.00;66.80;;;;;;5078233;28;20221;-85
2022/06/08 01:55:23;;;;;;;4.43;2.40;;;18.00;66.30;;;;;;5076419;28;20195;-93
2022/06/08 01:57:56;;;;;;;4.23;2.83;;;18.00;66.70;;;;;;5082064;28;20234;-87
2022/06/08 02:00:28;;;;;;;4.07;2.53;;;18.00;67.10;;;;;;5079048;28;20235;-95
2022/06/08 02:03:22;;;;;;;3.43;2.37;;;18.10;66.80;;;;;;5092810;28;20158;-91
2022/06/08 02:06:00;;;;;;;5.73;2.90;;;18.10;65.40;;;;;;5095008;28;20176;-84
2022/06/08 02:08:34;;;;;;;4.03;2.60;;;18.10;67.30;;;;;;5093632;28;20224;-92
2022/06/08 02:11:29;;;;;;;4.40;2.87;;;18.10;65.90;;;;;;5094180;28;20232;-93
2022/06/08 02:14:02;;;;;;;4.63;2.60;;;18.10;68.30;;;;;;5094663;28;20205;-83
2022/06/08 02:16:37;;;;;;;4.43;2.90;;;18.00;68.20;;;;;;5098997;28;20160;-85
2022/06/08 02:19:16;;;;;;;4.33;2.80;;;17.90;69.70;;;;;;5092024;28;20169;-92
2022/06/08 02:21:44;;;;;;;4.03;2.87;;;17.90;70.60;;;;;;5091843;28;20222;-82
2022/06/08 02:24:25;;;;;;;6.50;3.20;;;17.90;71.80;;;;;;5091341;28;20177;-84
2022/06/08 02:26:57;;;;;;;7.67;3.33;;;18.00;71.90;;;;;;5089604;28;20164;-84
2022/06/08 02:29:29;;;;;;;5.37;3.40;;;17.90;71.50;;;;;;5094780;28;20203;-84
2022/06/08 02:34:27;;;;;;;4.57;3.50;;;17.90;72.90;;;;;;5099944;28;20175;-85
2022/06/08 02:34:51;;;;;;;6.20;3.60;;;17.80;73.60;;;;;;5091293;28;20172;-93
2022/06/08 02:37:21;;;;;;;6.70;3.67;;;17.50;80.30;;;;;;5092505;28;20200;-91
2022/06/08 02:39:58;;;;;;;5.90;3.57;;;17.40;84.70;;;;;;5082871;28;20165;-84
2022/06/08 02:42:33;;;;;;;7.20;3.67;;;17.40;84.00;;;;;;5079155;28;20206;-85
2022/06/08 02:45:05;;;;;;;5.43;3.33;;;17.30;86.00;;;;;;5078437;28;20167;-91
2022/06/08 02:47:33;;;;;;;6.30;3.63;;;17.10;90.40;;;;;;5075699;28;20522;-86
2022/06/08 02:50:15;;;;;;;6.60;3.37;;;17.00;91.10;;;;;;5077772;28;20189;-93
2022/06/08 02:52:45;;;;;;;6.90;3.80;;;17.00;92.10;;;;;;5063831;28;20671;-93
2022/06/08 02:55:31;;;;;;;5.90;3.13;;;17.00;92.10;;;;;;5080899;28;20173;-85
2022/06/08 02:58:09;;;;;;;5.63;3.53;;;17.00;92.10;;;;;;5075738;28;20174;-92
2022/06/08 03:00:45;;;;;;;6.00;3.10;;;17.00;90.50;;;;;;5081012;28;20164;-93
2022/06/08 03:03:17;;;;;;;4.73;3.20;;;17.00;91.10;;;;;;5079494;28;20172;-94
2022/06/08 03:05:52;;;;;;;6.60;3.43;;;17.00;91.00;;;;;;5079469;28;20183;-90
2022/06/08 03:08:31;;;;;;;5.33;3.47;;;16.90;91.60;;;;;;5088365;28;20238;-90
2022/06/08 03:10:59;;;;;;;5.23;2.93;;;16.80;92.70;;;;;;5078263;28;20199;-93
2022/06/08 03:13:29;;;;;;;6.33;3.70;;;16.80;93.50;;;;;;5076862;28;20174;-90
2022/06/08 03:16:01;;;;;;;6.53;3.00;;;16.70;93.40;;;;;;5077044;28;20177;-90
2022/06/08 03:18:27;;;;;;;9.30;2.93;;;16.80;93.50;;;;;;5077358;28;20182;-94
2022/06/08 03:20:54;;;;;;;5.87;2.93;;;16.70;93.90;;;;;;5079674;28;20198;-89
2022/06/08 03:23:20;;;;;;;7.60;3.27;;;16.70;93.60;;;;;;5079627;28;20199;-85
2022/06/08 03:25:47;;;;;;;4.70;3.10;;;16.60;94.30;;;;;;5085244;28;20173;-85
2022/06/08 03:28:14;;;;;;;4.77;2.70;;;16.60;93.90;;;;;;5076138;28;20196;-91
2022/06/08 03:30:42;;;;;;;5.33;2.90;;;16.60;94.30;;;;;;5078940;28;20240;-89
2022/06/08 03:33:08;;;;;;;3.97;2.80;;;16.70;94.20;;;;;;5077083;28;20180;-86
2022/06/08 03:35:35;;;;;;;5.30;2.97;;;16.70;94.10;;;;;;5076236;28;20160;-87
2022/06/08 03:38:00;;;;;;;4.97;2.60;;;16.70;93.60;;;;;;5076934;28;20243;-85
2022/06/08 03:40:29;;;;;;;7.00;2.77;;;16.70;93.00;;;;;;5076708;28;20223;-86
2022/06/08 03:42:55;;;;;;;5.97;2.50;;;16.70;92.50;;;;;;5064746;28;20177;-83
2022/06/08 03:45:21;;;;;;;4.40;2.67;;;16.70;92.30;;;;;;5091369;28;20205;-84
2022/06/08 03:47:51;;;;;;;6.63;2.60;;;16.80;92.00;;;;;;5093253;28;20248;-84
2022/06/08 03:50:24;;;;;;;4.93;2.33;;;16.70;91.20;;;;;;5095520;28;20577;-85
2022/06/08 03:53:03;;;;;;;5.23;2.60;;;16.80;91.00;;;;;;5096687;28;20186;-84
2022/06/08 03:55:33;;;;;;;5.37;2.77;;;16.90;90.30;;;;;;5096811;28;20149;-85
2022/06/08 03:58:04;;;;;;;6.87;2.50;;;16.80;90.60;;;;;;5098917;28;20237;-85
2022/06/08 04:00:32;;;;;;;5.20;2.80;;;16.90;90.60;;;;;;5082052;28;20181;-88
2022/06/08 04:02:59;;;;;;;5.27;2.43;;;17.00;90.20;;;;;;5096730;28;20165;-84
2022/06/08 04:05:30;;;;;;;3.30;2.20;;;16.90;90.00;;;;;;5086358;28;20174;-94
2022/06/08 04:08:00;;;;;;;5.70;2.10;;;16.90;90.30;;;;;;5081376;28;20191;-92
2022/06/08 04:10:25;;;;;;;5.47;2.30;;;17.00;89.50;;;;;;5076634;28;20184;-93
2022/06/08 04:12:52;;;;;;;4.20;2.30;;;17.00;87.30;;;;;;5081777;28;20191;-91
2022/06/08 04:18:03;;;;;;;5.23;2.13;;;17.00;86.20;;;;;;5098440;28;20191;-85
2022/06/08 04:20:29;;;;;;;5.00;2.53;;;17.10;84.10;;;;;;5096674;28;20184;-94
2022/06/08 04:22:58;;;;;;;5.70;2.10;;;17.20;83.10;;;;;;5090863;28;20278;-92
2022/06/08 04:25:24;;;;;;;6.33;2.00;;;17.10;82.40;;;;;;5089159;28;20176;-94
2022/06/08 04:27:50;;;;;;;5.03;2.10;;;17.20;81.80;;;;;;5084666;28;20525;-94
2022/06/08 04:30:17;;;;;;;4.53;1.87;;;17.10;82.20;;;;;;5080318;28;20232;-92
2022/06/08 04:32:43;;;;;;;5.57;1.93;;;17.00;83.30;;;;;;5083100;28;20177;-95
2022/06/08 04:35:09;;;;;;;6.60;2.17;;;17.00;83.80;;;;;;5083658;28;20172;-94
2022/06/08 04:37:37;;;;;;;5.27;2.00;;;17.10;84.00;;;;;;5066003;28;20178;-88
2022/06/08 04:40:05;;;;;;;7.83;2.07;;;17.10;82.30;;;;;;5064170;28;20203;-87
2022/06/08 04:42:30;;;;;;;4.10;2.10;;;17.10;82.10;;;;;;5079671;28;20249;-83
2022/06/08 04:44:56;;;;;;;8.30;2.30;;;17.00;83.60;;;;;;5082068;28;20653;-93
2022/06/08 04:47:22;;;;;;;4.17;2.03;;;17.00;84.60;;;;;;5077750;28;20263;-89
2022/06/08 04:49:48;;;;;;;6.73;2.10;;;17.10;83.90;;;;;;5076587;28;20259;-91
2022/06/08 04:52:13;;;;;;;5.63;2.07;;;17.10;83.00;;;;;;5076574;28;20176;-88
2022/06/08 04:54:39;;;;;;;5.53;2.20;;;17.00;82.80;;;;;;5078015;28;20255;-92
2022/06/08 04:57:05;;;;;;;7.10;2.90;;;17.10;84.00;;;;;;5077821;28;20191;-92
2022/06/08 04:59:30;;;;;;;8.43;2.40;;;17.10;83.80;;;;;;5080602;28;20169;-87
2022/06/08 05:01:57;;;;;;;5.50;2.17;;;17.20;83.30;;;;;;5081702;28;20220;-88
2022/06/08 05:04:23;;;;;;;4.63;2.13;;;17.20;80.70;;;;;;5080026;28;20204;-88
2022/06/08 05:06:49;;;;;;;9.30;2.30;;;17.20;80.50;;;;;;5081849;28;20180;-89
2022/06/08 05:09:14;;;;;;;5.80;2.27;;;17.30;80.50;;;;;;5079743;28;20644;-88
2022/06/08 05:11:40;;;;;;;5.83;1.93;;;17.30;79.40;;;;;;5078729;28;20176;-93
2022/06/08 05:14:06;;;;;;;8.37;2.47;;;17.30;80.40;;;;;;5080276;28;20170;-90
2022/06/08 05:16:32;;;;;;;6.00;2.27;;;17.40;79.40;;;;;;5079240;28;20166;-91
2022/06/08 05:18:57;;;;;;;7.67;2.63;;;17.40;77.10;;;;;;5080675;28;20180;-93
2022/06/08 05:21:23;;;;;;;6.13;2.50;;;17.40;77.10;;;;;;5082782;28;20176;-91
2022/06/08 05:23:49;;;;;;;6.53;2.33;;;17.30;77.10;;;;;;5083462;28;20189;-93
2022/06/08 05:26:15;;;;;;;7.43;3.00;;;17.30;77.70;;;;;;5086155;28;20177;-93
2022/06/08 05:28:43;;;;;;;7.33;2.80;;;17.30;78.50;;;;;;5085672;28;20662;-94
2022/06/08 05:31:09;;;;;;;8.40;2.27;;;17.40;77.40;;;;;;5084246;28;20191;-91
2022/06/08 05:33:36;;;;;;;7.47;2.80;;;17.30;77.90;;;;;;5085862;28;20215;-87
2022/06/08 05:36:01;;;;;;;7.23;2.70;;;17.30;78.60;;;;;;5087689;28;20169;-92
2022/06/08 05:38:27;;;;;;;7.17;2.50;;;17.40;78.40;;;;;;5083558;28;20183;-89
2022/06/08 05:40:54;;;;;;;7.43;2.47;;;17.50;77.20;;;;;;5086680;28;20184;-90
2022/06/08 05:43:21;;;;;;;7.77;2.83;;;17.50;75.80;;;;;;5060417;28;20267;-92
2022/06/08 05:45:47;;;;;;;7.10;2.50;;;17.60;74.80;;;;;;5085538;28;20707;-93
2022/06/08 05:48:14;;;;;;;8.23;2.97;;;17.50;73.90;;;;;;5073341;28;20354;-85
2022/06/08 05:50:42;;;;;;;7.60;3.00;;;17.50;75.30;;;;;;5084159;28;20190;-85
2022/06/08 05:53:09;;;;;;;6.07;2.87;;;17.60;74.40;;;;;;5074026;28;20188;-84
2022/06/08 05:55:35;;;;;;;7.30;2.67;;;17.60;74.30;;;;;;5084779;28;20273;-86
2022/06/08 05:58:01;;;;;;;8.50;3.20;;;17.60;72.90;;;;;;5076102;28;20176;-92
2022/06/08 06:00:33;;;;;;;9.03;2.70;;;17.70;72.60;;;;;;5081610;28;20191;-90
2022/06/08 06:03:02;;;;;;;8.57;3.07;;;17.70;69.90;;;;;;5069947;28;20239;-90
2022/06/08 06:05:38;;;;;;;7.47;3.00;;;17.60;72.30;;;;;;5060763;28;20174;-91
2022/06/08 06:08:08;;;;;;;7.80;3.07;;;17.70;71.10;;;;;;5067878;28;20187;-91
2022/06/08 06:10:37;;;;;;;10.10;2.80;;;17.80;66.90;;;;;;5086083;28;20176;-91
2022/06/08 06:13:04;;;;;;;7.57;3.10;;;17.80;67.50;;;;;;5090376;28;20161;-88
2022/06/08 06:15:30;;;;;;;12.50;3.20;;;17.70;71.00;;;;;;5076533;28;20172;-89
2022/06/08 06:17:56;;;;;;;9.43;3.73;;;17.70;72.60;;;;;;5080775;28;20184;-83
2022/06/08 06:20:27;;;;;;;10.80;3.93;;;17.60;78.20;;;;;;5081429;28;20188;-90
2022/06/08 06:22:53;;;;;;;7.17;3.60;;;17.50;84.00;;;;;;5084186;28;20606;-91
2022/06/08 06:25:21;;;;;;;11.87;3.40;;;17.50;87.30;;;;;;5081137;28;20173;-90
2022/06/08 06:27:48;;;;;;;7.80;3.33;;;17.50;90.00;;;;;;5061507;28;20700;-88
2022/06/08 06:30:15;;;;;;;10.40;4.37;;;17.50;90.10;;;;;;5078273;28;20179;-92
2022/06/08 06:32:48;;;;;;;12.07;4.27;;;17.60;88.60;;;;;;5089187;28;20200;-84
2022/06/08 06:35:28;;;;;;;8.17;5.10;;;17.60;90.00;;;;;;5090449;28;20198;-86
2022/06/08 06:37:54;;;;;;;7.50;3.57;;;17.50;89.90;;;;;;5080169;28;20653;-88
2022/06/08 06:40:20;;;;;;;14.13;4.73;;;17.50;90.30;;;;;;5084493;28;20218;-93
2022/06/08 06:42:50;;;;;;;7.80;3.50;;;17.60;91.10;;;;;;5096558;28;20171;-92
2022/06/08 06:45:17;;;;;;;10.23;4.10;;;17.70;90.50;;;;;;5098676;28;20244;-85
2022/06/08 06:47:51;;;;;;;8.27;3.50;;;17.60;91.00;;;;;;5097456;28;20188;-88
2022/06/08 06:50:27;;;;;;;10.53;3.77;;;17.70;90.60;;;;;;5093937;28;20260;-83
2022/06/08 06:52:59;;;;;;;10.23;4.10;;;17.80;90.00;;;;;;5088769;28;20189;-87
2022/06/08 06:55:34;;;;;;;7.97;3.63;;;17.90;88.30;;;;;;5082528;28;20168;-84
2022/06/08 06:57:59;;;;;;;8.13;3.77;;;17.90;86.70;;;;;;5078778;28;20172;-84
2022/06/08 07:00:27;;;;;;;11.50;4.67;;;17.70;87.50;;;;;;5060263;28;20176;-84
2022/06/08 07:02:52;;;;;;;8.73;3.93;;;17.70;88.60;;;;;;5077555;28;20170;-82
2022/06/08 07:05:29;;;;;;;9.83;3.70;;;17.70;88.20;;;;;;5075109;28;20185;-84
2022/06/08 07:07:54;;;;;;;11.87;4.30;;;17.70;90.10;;;;;;5067209;28;20255;-85
2022/06/08 07:10:29;;;;;;;10.00;4.10;;;17.80;88.20;;;;;;5072861;28;20261;-84
2022/06/08 07:12:57;;;;;;;8.37;4.13;;;17.80;84.10;;;;;;5061985;28;20196;-85
2022/06/08 07:15:24;;;;;;;10.17;4.37;;;17.70;85.90;;;;;;5061795;28;20246;-85
2022/06/08 07:17:53;;;;;;;10.93;4.00;;;17.70;89.30;;;;;;5064366;28;20192;-88
2022/06/08 07:20:23;;;;;;;11.20;4.10;;;17.70;88.40;;;;;;5073098;28;20188;-85
2022/06/08 07:22:50;;;;;;;8.30;3.80;;;17.70;88.70;;;;;;5063719;28;20244;-84
2022/06/08 07:25:18;;;;;;;12.97;3.80;;;17.70;88.10;;;;;;5068769;28;20191;-85
2022/06/08 07:27:45;;;;;;;8.73;4.37;;;17.80;89.70;;;;;;5071540;28;20183;-90
2022/06/08 07:30:12;;;;;;;9.90;4.00;;;17.70;88.00;;;;;;5076526;28;20343;-86
2022/06/08 07:32:38;;;;;;;8.70;4.23;;;17.70;88.50;;;;;;5075210;28;20184;-88
2022/06/08 07:35:07;;;;;;;9.43;4.30;;;17.60;89.80;;;;;;5077551;28;20288;-89
2022/06/08 07:37:39;;;;;;;10.63;4.33;;;17.60;90.80;;;;;;5068984;28;20185;-85
2022/06/08 07:40:09;;;;;;;9.33;4.70;;;17.60;91.20;;;;;;5070939;28;20188;-84
2022/06/08 07:42:39;;;;;;;11.43;4.80;;;17.50;91.80;;;;;;5067093;28;20215;-84
2022/06/08 07:45:19;;;;;;;9.50;4.77;;;17.60;91.80;;;;;;5063982;28;20185;-86
2022/06/08 07:50:31;;;;;;;11.77;4.50;;;17.60;92.60;;;;;;5076844;28;20238;-85
2022/06/08 07:53:01;;;;;;;9.67;4.60;;;17.70;91.20;;;;;;5078906;28;20179;-85
2022/06/08 07:55:27;;;;;;;10.67;3.97;;;17.70;87.60;;;;;;5067301;28;20189;-88
2022/06/08 07:57:58;;;;;;;10.37;4.30;;;17.60;90.50;;;;;;5070663;28;20629;-87
2022/06/08 08:00:26;;;;;;;9.30;4.30;;;17.60;90.20;;;;;;5087310;28;20207;-91
2022/06/08 08:02:53;;;;;;;8.97;4.23;;;17.50;90.10;;;;;;5068022;28;20197;-89
2022/06/08 08:05:21;;;;;;;8.80;4.33;;;17.50;90.30;;;;;;5077491;28;20178;-92
2022/06/08 08:07:51;;;;;;;10.47;4.17;;;17.40;92.60;;;;;;5077218;28;20193;-89
2022/06/08 08:10:43;;;;;;;8.47;4.47;;;17.30;94.20;;;;;;5076249;28;20253;-86
2022/06/08 08:13:17;;;;;;;9.67;4.67;;;17.20;96.10;;;;;;5085882;28;20196;-87
2022/06/08 08:15:44;;;;;;;14.43;6.37;;;17.30;96.00;;;;;;5078283;28;20173;-88
2022/06/08 08:18:10;;;;;;;13.13;5.30;;;17.40;96.10;;;;;;5056970;28;20181;-89
2022/06/08 08:20:36;;;;;;;10.27;4.73;;;17.50;97.10;;;;;;5061423;28;20170;-86
2022/06/08 08:23:03;;;;;;;11.40;5.23;;;17.70;97.30;;;;;;5078701;28;20208;-86
2022/06/08 08:25:29;;;;;;;14.37;6.13;;;17.70;96.60;;;;;;5076336;28;20174;-87
2022/06/08 08:27:57;;;;;;;15.43;6.53;;;17.80;96.80;;;;;;5074899;28;20181;-89
2022/06/08 08:30:27;;;;;;;13.07;8.33;;;17.70;97.70;;;;;;5043759;28;20208;-86
2022/06/08 08:32:53;;;;;;;13.97;6.37;;;17.80;97.50;;;;;;5056911;28;20172;-82
2022/06/08 08:35:21;;;;;;;10.67;5.90;;;17.70;96.90;;;;;;5055441;28;20267;-84
2022/06/08 08:37:47;;;;;;;16.03;6.03;;;17.60;98.50;;;;;;5062887;28;20275;-85
2022/06/08 08:40:34;;;;;;;12.97;6.33;;;17.50;99.90;;;;;;5075497;28;20216;-85
2022/06/08 08:43:01;;;;;;;12.73;6.00;;;17.50;99.90;;;;;;5070886;28;20523;-84
2022/06/08 08:45:32;;;;;;;16.80;5.90;;;17.50;99.90;;;;;;5060760;28;20181;-84
2022/06/08 08:48:05;;;;;;;11.77;4.57;;;17.60;99.90;;;;;;5065556;28;20187;-86
2022/06/08 08:50:44;;;;;;;14.93;4.93;;;17.50;99.90;;;;;;5077825;28;20179;-84
2022/06/08 08:53:19;;;;;;;8.60;4.07;;;17.50;99.90;;;;;;5068276;28;20184;-82
2022/06/08 08:55:56;;;;;;;12.40;4.43;;;17.40;99.90;;;;;;5068129;28;20169;-83
2022/06/08 08:58:27;;;;;;;9.47;4.40;;;17.50;99.90;;;;;;5073391;28;20176;-84
2022/06/08 09:00:59;;;;;;;12.43;4.30;;;17.50;99.90;;;;;;5059051;28;20185;-85
2022/06/08 09:03:46;;;;;;;10.10;4.83;;;17.60;99.90;;;;;;5071119;28;20183;-84
2022/06/08 09:06:23;;;;;;;12.57;4.10;;;17.60;99.90;;;;;;5061330;28;20179;-85
2022/06/08 09:08:52;;;;;;;10.73;4.67;;;17.70;99.90;;;;;;5072757;28;20673;-84
2022/06/08 09:11:26;;;;;;;8.33;4.30;;;17.80;99.90;;;;;;5072186;28;20211;-84
2022/06/08 09:13:56;;;;;;;9.87;3.67;;;17.70;99.90;;;;;;5061204;28;20180;-89
2022/06/08 09:16:39;;;;;;;9.63;3.73;;;17.60;99.90;;;;;;5083083;28;20172;-91
2022/06/08 09:19:36;;;;;;;7.93;3.47;;;17.60;99.90;;;;;;5081618;28;20196;-92
2022/06/08 09:22:07;;;;;;;9.00;3.70;;;17.50;99.90;;;;;;5082642;28;20201;-88
2022/06/08 09:24:36;;;;;;;9.53;3.23;;;17.50;99.90;;;;;;5081759;28;20180;-85
2022/06/08 09:27:17;;;;;;;7.27;3.00;;;17.30;99.90;;;;;;5091526;28;20172;-85
2022/06/08 09:30:15;;;;;;;6.43;2.70;;;17.10;99.90;;;;;;5093450;28;20239;-87
2022/06/08 09:32:46;;;;;;;8.53;3.30;;;16.90;99.90;;;;;;5090649;28;20268;-86
2022/06/08 09:35:35;;;;;;;8.43;2.83;;;16.80;99.90;;;;;;5095591;28;20192;-86
2022/06/08 09:38:09;;;;;;;8.03;3.20;;;16.80;99.90;;;;;;5090064;28;20188;-87
2022/06/08 09:41:13;;;;;;;9.93;2.73;;;16.70;99.90;;;;;;5084741;28;20242;-82
2022/06/08 09:44:34;;;;;;;6.90;2.83;;;16.70;99.90;;;;;;5069555;28;20239;-85
2022/06/08 09:54:01;;;;;;;7.90;3.27;;;16.70;99.90;;;;;;5077212;28;20172;-86
2022/06/08 09:56:46;;;;;;;7.23;3.03;;;16.60;99.90;;;;;;5075794;28;20257;-88
2022/06/08 09:59:43;;;;;;;8.20;3.73;;;16.60;99.90;;;;;;5075149;28;20171;-90
2022/06/08 10:02:23;;;;;;;10.47;3.30;;;16.50;99.90;;;;;;5076004;28;20155;-85
2022/06/08 10:04:58;;;;;;;9.13;3.17;;;16.40;99.90;;;;;;5077034;28;20161;-87
2022/06/08 10:07:50;;;;;;;6.60;2.90;;;16.40;99.90;;;;;;5078835;28;20707;-87
2022/06/08 10:10:23;;;;;;;10.40;3.13;;;16.30;99.90;;;;;;5068997;28;20220;-86
2022/06/08 10:12:57;;;;;;;6.00;2.70;;;16.30;99.90;;;;;;5092363;28;20592;-84
2022/06/08 10:15:38;;;;;;;7.07;2.90;;;16.30;99.90;;;;;;5094533;28;20202;-85
2022/06/08 10:18:27;;;;;;;6.63;2.80;;;16.30;99.90;;;;;;5088626;28;20180;-85
2022/06/08 10:21:22;;;;;;;5.73;3.00;;;16.30;99.90;;;;;;5084713;28;20264;-85
2022/06/08 10:24:12;;;;;;;6.20;3.17;;;16.30;99.90;;;;;;5062767;28;20215;-85
2022/06/08 10:26:46;;;;;;;9.40;3.00;;;16.20;99.90;;;;;;5070097;28;20157;-86
2022/06/08 10:29:37;;;;;;;5.97;3.10;;;16.30;99.90;;;;;;5058552;28;20209;-88
2022/06/08 10:32:22;;;;;;;4.23;2.20;;;16.20;99.90;;;;;;5105749;28;20192;-94
2022/06/08 10:34:54;;;;;;;7.50;2.70;;;16.30;99.90;;;;;;5100782;28;20258;-90
2022/06/08 10:37:30;;;;;;;4.57;2.37;;;16.30;99.90;;;;;;5066904;28;20175;-91
2022/06/08 10:39:57;;;;;;;6.03;2.33;;;16.20;99.90;;;;;;5068406;28;20180;-88
2022/06/08 10:42:43;;;;;;;7.00;2.70;;;16.20;99.90;;;;;;5077135;28;20196;-91
2022/06/08 10:45:23;;;;;;;6.27;3.10;;;16.20;99.90;;;;;;5073846;28;20185;-90
2022/06/08 10:48:24;;;;;;;5.47;2.83;;;16.10;99.90;;;;;;5080444;28;20183;-94
2022/06/08 10:51:21;;;;;;;5.90;3.17;;;16.20;99.90;;;;;;5048430;28;20192;-90
2022/06/08 10:56:40;;;;;;;6.73;2.93;;;16.30;99.90;;;;;;5058371;28;20196;-83
2022/06/08 10:59:08;;;;;;;3.73;2.33;;;16.30;99.90;;;;;;5071991;28;20173;-84
2022/06/08 11:01:49;;;;;;;4.77;2.40;;;16.30;99.90;;;;;;5073251;28;20177;-84
2022/06/08 11:04:30;;;;;;;5.40;2.97;;;16.30;99.90;;;;;;5074663;28;20309;-88
2022/06/08 11:07:11;;;;;;;4.47;2.63;;;16.40;99.90;;;;;;5075076;28;20175;-89
2022/06/08 11:09:36;;;;;;;4.40;2.10;;;16.40;99.90;;;;;;5093142;28;20204;-85
2022/06/08 11:12:11;;;;;;;3.20;2.17;;;16.40;99.90;;;;;;5081615;28;20245;-86
2022/06/08 11:14:43;;;;;;;4.03;2.30;;;16.40;99.90;;;;;;5078600;28;20188;-85
2022/06/08 11:17:57;;;;;;;6.13;1.97;;;16.40;99.90;;;;;;5074205;28;20173;-84
2022/06/08 11:20:47;;;;;;;3.87;1.70;;;16.40;99.90;;;;;;4958986;28;20288;-84
2022/06/08 11:23:29;;;;;;;4.20;1.70;;;16.50;99.90;;;;;;4990256;28;20253;-84
2022/06/08 11:26:07;;;;;;;3.50;2.00;;;16.60;99.90;;;;;;5058037;28;20192;-84
2022/06/08 11:28:48;;;;;;;3.10;1.80;;;16.60;99.90;;;;;;5068758;28;20270;-84
2022/06/08 11:31:28;;;;;;;6.97;2.40;;;16.60;99.90;;;;;;5058293;28;20703;-84
2022/06/08 11:34:35;;;;;;;4.47;1.70;;;16.70;99.90;;;;;;5062390;28;20643;-84
2022/06/08 11:37:03;;;;;;;5.30;1.70;;;16.70;99.90;;;;;;5042597;28;20174;-84
2022/06/08 11:39:48;;;;;;;3.57;2.10;;;16.60;99.90;;;;;;5055543;28;20195;-87
2022/06/08 11:42:22;;;;;;;4.10;1.93;;;16.60;99.90;;;;;;5073116;28;20180;-86
2022/06/08 11:44:53;;;;;;;4.10;2.20;;;16.70;99.90;;;;;;5073884;28;20237;-84
2022/06/08 11:47:49;;;;;;;6.10;1.80;;;16.60;99.90;;;;;;5060260;28;20519;-86
2022/06/08 11:50:22;;;;;;;3.47;1.83;;;16.60;99.90;;;;;;5040454;28;20680;-86
2022/06/08 11:53:00;;;;;;;5.43;2.10;;;16.70;99.90;;;;;;5054531;28;20171;-85
2022/06/08 11:55:27;;;;;;;3.43;1.70;;;16.80;99.90;;;;;;5065540;28;20935;-85
2022/06/08 11:58:05;;;;;;;4.17;1.80;;;16.90;99.90;;;;;;5076073;28;20176;-85
2022/06/08 12:00:34;;;;;;;2.80;1.70;;;16.80;99.90;;;;;;5071178;28;20165;-85
2022/06/08 12:03:25;;;;;;;2.47;1.40;;;16.90;99.90;;;;;;5067169;28;20177;-84
2022/06/08 12:06:03;;;;;;;2.60;1.70;;;16.90;99.90;;;;;;5046270;28;20177;-85
2022/06/08 12:08:52;;;;;;;3.97;1.90;;;16.90;99.90;;;;;;5070240;28;20242;-84
2022/06/08 12:11:21;;;;;;;4.97;2.33;;;16.90;99.90;;;;;;5075894;28;20172;-87
2022/06/08 12:14:15;;;;;;;3.53;1.83;;;16.90;99.90;;;;;;5090583;28;20169;-83
2022/06/08 12:17:04;;;;;;;2.50;1.80;;;17.00;99.90;;;;;;5088680;28;20173;-86
2022/06/08 12:19:44;;;;;;;4.20;1.53;;;17.00;99.90;;;;;;5079971;28;20178;-84
2022/06/08 12:22:19;;;;;;;5.43;1.97;;;17.00;99.90;;;;;;5062074;28;20301;-84
2022/06/08 12:25:06;;;;;;;2.77;1.80;;;17.00;99.90;;;;;;5062707;28;20173;-85
2022/06/08 12:28:00;;;;;;;3.73;2.00;;;17.10;99.90;;;;;;5066626;28;20220;-85
2022/06/08 12:30:53;;;;;;;4.00;2.00;;;17.10;99.90;;;;;;5069628;28;20199;-84
2022/06/08 12:33:19;;;;;;;8.10;2.17;;;17.10;99.90;;;;;;5067504;28;20161;-85
2022/06/08 12:36:27;;;;;;;5.27;2.10;;;17.10;99.90;;;;;;5065459;28;20555;-86
2022/06/08 12:39:07;;;;;;;4.00;2.23;;;17.10;99.90;;;;;;5074315;28;20211;-83
2022/06/08 12:41:44;;;;;;;6.53;2.67;;;17.10;99.90;;;;;;5068630;28;20191;-85
2022/06/08 12:44:19;;;;;;;4.77;2.30;;;17.10;99.90;;;;;;5075245;28;20509;-84
2022/06/08 12:47:18;;;;;;;4.77;2.20;;;17.20;99.90;;;;;;5058412;28;20214;-83
2022/06/08 12:50:10;;;;;;;3.30;2.10;;;17.20;99.90;;;;;;5068700;28;20221;-84
2022/06/08 12:52:36;;;;;;;4.07;2.60;;;17.30;99.90;;;;;;5044210;28;20180;-84
2022/06/08 12:55:11;;;;;;;6.60;2.83;;;17.20;99.90;;;;;;5054220;28;20180;-85
2022/06/08 12:57:38;;;;;;;7.57;3.10;;;17.20;99.90;;;;;;5055060;28;20184;-84
2022/06/08 13:00:07;;;;;;;6.40;2.73;;;17.20;99.90;;;;;;5067078;28;20226;-84
2022/06/08 13:02:37;;;;;;;6.57;2.77;;;17.20;99.90;;;;;;5074012;28;20187;-83
2022/06/08 13:05:14;;;;;;;10.13;3.03;;;17.40;99.90;;;;;;5055633;28;20185;-84
2022/06/08 13:07:40;;;;;;;7.60;3.07;;;17.40;99.90;;;;;;5052633;28;20573;-85
2022/06/08 13:10:06;;;;;;;9.50;3.83;;;17.30;99.90;;;;;;5074148;28;20235;-85
2022/06/08 13:12:40;;;;;;;7.53;3.43;;;17.40;99.90;;;;;;5073687;28;20180;-84
2022/06/08 13:15:17;;;;;;;9.63;4.10;;;17.40;99.90;;;;;;5062923;28;20185;-88
2022/06/08 13:17:43;;;;;;;7.47;3.60;;;17.40;99.90;;;;;;5060731;28;20496;-86
2022/06/08 13:20:26;;;;;;;6.87;3.67;;;17.50;99.90;;;;;;5070770;28;20192;-85
2022/06/08 13:22:53;;;;;;;8.53;4.00;;;17.50;99.90;;;;;;5072929;28;20211;-88
2022/06/08 13:25:23;;;;;;;7.30;3.70;;;17.60;99.90;;;;;;5072723;28;20198;-85
2022/06/08 13:27:51;;;;;;;8.03;4.13;;;17.50;99.90;;;;;;5059847;28;20183;-84
2022/06/08 13:30:22;;;;;;;10.90;4.53;;;17.60;99.90;;;;;;5073031;28;20228;-89
2022/06/08 13:32:49;;;;;;;12.30;4.30;;;17.60;99.90;;;;;;5077519;28;20202;-88
2022/06/08 13:35:18;;;;;;;10.07;4.20;;;17.70;99.90;;;;;;5083500;28;20180;-85